K0CO

Empire

Empire, Colorado, USA
METAR K0CO 181542Z AUTO 28010KT 10SM BKN029 OVC034 M03/M12 A3047 RMK AO2 LTG DSNT S
Observed Flight Rules
Oct-18 @ 15:42 UTC (15 minutes ago) Marginal Visual Flight Rules
Wind Visibility Clouds
280° at 10 knots 10 miles
  • Broken at 2,900' AGL
  • Overcast at 3,400' AGL
Temperatures Readings
Current -3°C / 27°F
Dewpoint -12°C / 10°F
Humidity 50%
Altimeter 30.47" Hg
Pressure 1032 hPa
Elevation 3807
METAR K0CO 181542Z AUTO 28010KT 10SM BKN029 OVC034 M03/M12 A3047 RMK AO2 LTG DSNT S
Observed Flight Rules
Oct-18 @ 15:42 UTC
(15 minutes ago)
MVFR
Wind Visibility
280° at 10 knots 10 miles
Clouds
  • Broken at 2,900' AGL
  • Overcast at 3,400' AGL
Temperature Dewpoint
-3°C / 27°F -12°C / 10°F
Humidity Altimeter Pressure
50% 30.47" Hg 1032 hPa